首页
METAR-TAF:

METAR-TAF

机场 :

诗巫机场

诗巫, 马来西亚

纬度: 02-20N, 经度: 111-50E, 海拔: 8米

当前天气观测

该预报发布于57分钟前的23:00 UTC
风速4节,风向,在北转西北东北之间变化
温度 24°C
湿度 94%
气压 1012 hPa
能见度10公里或以上
少量云层高于500英尺
散云层高于1600英尺
小雨,

METAR: WBGS 252300Z 01004KT 330V050 9999 -RA FEW005 SCT016 24/23 Q1012 RETSRA

时间: 07:57 (23:57 UTC)

预报

该预报发布于57分钟前的23:00 UTC
预报有效从26日的 00点(UTC)到 27日的 00点(UTC)
风速3节,风向多变
能见度10公里或以上
散云层高于1600英尺
短暂存在
从 26日的 00点(UTC)到 26日的 04点(UTC)
能見度: 3000
少量云层高于1500英尺, 积雨云.
散云层高于2000英尺
雷暴, 大雨,

TAF: WBGS 252300Z 2600/2700 VRB03KT 9999 SCT016 TEMPO 2600/2604 3000 +TSRA FEW015CB SCT020

超过4000个机场的气象观测和天气预报(METAR&TAF报告)。

可查询的气象台以黄色和红色小点在地图上表示。

将鼠标移到小点上方,可查看气象台名称。

然后点击查看天气观测和预报。

如需切换地图:点击带黑十字的绿色按钮放大地图;点击带横线的绿色按钮缩小地图;或者点击绿色箭头查看邻近地区的地图。


METAR-TAF: